La Nava - Corral De Ayllón Airport

Jump to: basic info | weather | comments

Related pages: nearby airports | nearby navaids | notams | map

Basic information (top)

Codes: LECA
Location: lon 41.410801, lat -3.448330, elev 3,280 ft / 1,000 m msl
Status: small_airport

Weather (top)

Current conditions for Torrejón Airport 55nm (102km) S (rec'd 2014/04/19 07:00Z):

LETO 190700Z VRB01KT CAVOK 11/06 Q1009 NOSIG

Airport forecast for Torrejón Airport 55nm (102km) S (rec'd 2014/04/19 06:30Z):

TAF LETO 190500Z 1906/2006 VRB04KT 9999 FEW050 TX25/1914Z TN08/2006Z 
      BECMG 1909/1911 21012KT 
      TEMPO 1913/1921 23015G27KT FEW050TCU PROB30 
      TEMPO 1914/1920 SHRA SCT045CB

Latest comments (top)

No comments yet for La Nava - Corral De Ayllón Airport

More... (top)

See also NOTAMs and nearby airports and navaids, or visit the La Nava - Corral De Ayllón Airport page at the main OurAirports website..